sensor_id;sensor_type;location;lat;lon;timestamp;P1;durP1;ratioP1;P2;durP2;ratioP2
14377;SDS011;7272;53.668;9.578;2023-03-01T00:01:07;4.60;;;4.20;;
14377;SDS011;7272;53.668;9.578;2023-03-01T00:04:11;4.27;;;3.93;;
14377;SDS011;7272;53.668;9.578;2023-03-01T00:07:12;4.83;;;4.43;;
14377;SDS011;7272;53.668;9.578;2023-03-01T00:10:15;4.40;;;4.00;;
14377;SDS011;7272;53.668;9.578;2023-03-01T00:13:18;4.13;;;3.83;;
14377;SDS011;7272;53.668;9.578;2023-03-01T00:16:21;4.30;;;3.90;;
14377;SDS011;7272;53.668;9.578;2023-03-01T00:19:24;3.63;;;3.40;;
14377;SDS011;7272;53.668;9.578;2023-03-01T00:22:26;4.60;;;4.20;;
14377;SDS011;7272;53.668;9.578;2023-03-01T00:25:29;4.47;;;4.03;;
14377;SDS011;7272;53.668;9.578;2023-03-01T00:28:32;3.97;;;3.67;;
14377;SDS011;7272;53.668;9.578;2023-03-01T00:31:34;4.23;;;3.83;;
14377;SDS011;7272;53.668;9.578;2023-03-01T00:34:36;4.50;;;4.20;;
14377;SDS011;7272;53.668;9.578;2023-03-01T00:37:38;4.20;;;3.80;;
14377;SDS011;7272;53.668;9.578;2023-03-01T00:40:41;6.87;;;5.20;;
14377;SDS011;7272;53.668;9.578;2023-03-01T00:43:45;4.70;;;4.30;;
14377;SDS011;7272;53.668;9.578;2023-03-01T00:46:47;4.70;;;4.30;;
14377;SDS011;7272;53.668;9.578;2023-03-01T00:49:49;4.10;;;3.80;;
14377;SDS011;7272;53.668;9.578;2023-03-01T00:52:52;3.40;;;3.13;;
14377;SDS011;7272;53.668;9.578;2023-03-01T00:55:56;4.50;;;3.77;;
14377;SDS011;7272;53.668;9.578;2023-03-01T00:58:59;4.63;;;4.30;;
14377;SDS011;7272;53.668;9.578;2023-03-01T01:02:01;4.03;;;3.73;;
14377;SDS011;7272;53.668;9.578;2023-03-01T01:05:04;6.10;;;4.97;;
14377;SDS011;7272;53.668;9.578;2023-03-01T01:08:07;4.70;;;4.30;;
14377;SDS011;7272;53.668;9.578;2023-03-01T01:11:09;4.10;;;3.80;;
14377;SDS011;7272;53.668;9.578;2023-03-01T01:14:12;4.93;;;4.53;;
14377;SDS011;7272;53.668;9.578;2023-03-01T01:17:15;4.40;;;4.00;;
14377;SDS011;7272;53.668;9.578;2023-03-01T01:20:17;5.70;;;5.20;;
14377;SDS011;7272;53.668;9.578;2023-03-01T01:23:19;6.50;;;6.00;;
14377;SDS011;7272;53.668;9.578;2023-03-01T01:26:22;5.63;;;5.13;;
14377;SDS011;7272;53.668;9.578;2023-03-01T01:29:26;5.37;;;4.83;;
14377;SDS011;7272;53.668;9.578;2023-03-01T01:32:28;5.80;;;5.30;;
14377;SDS011;7272;53.668;9.578;2023-03-01T01:35:30;5.53;;;5.03;;
14377;SDS011;7272;53.668;9.578;2023-03-01T01:38:32;4.70;;;4.30;;
14377;SDS011;7272;53.668;9.578;2023-03-01T01:41:35;5.10;;;4.70;;
14377;SDS011;7272;53.668;9.578;2023-03-01T01:44:39;4.70;;;4.30;;
14377;SDS011;7272;53.668;9.578;2023-03-01T01:47:41;5.03;;;4.57;;
14377;SDS011;7272;53.668;9.578;2023-03-01T01:50:43;4.17;;;3.87;;
14377;SDS011;7272;53.668;9.578;2023-03-01T01:53:48;4.13;;;3.77;;
14377;SDS011;7272;53.668;9.578;2023-03-01T01:56:55;4.50;;;4.10;;
14377;SDS011;7272;53.668;9.578;2023-03-01T02:00:04;5.57;;;4.90;;
14377;SDS011;7272;53.668;9.578;2023-03-01T02:03:14;5.10;;;4.57;;
14377;SDS011;7272;53.668;9.578;2023-03-01T02:06:21;5.30;;;4.80;;
14377;SDS011;7272;53.668;9.578;2023-03-01T02:09:28;4.30;;;3.87;;
14377;SDS011;7272;53.668;9.578;2023-03-01T02:12:34;6.33;;;5.73;;
14377;SDS011;7272;53.668;9.578;2023-03-01T02:15:38;6.27;;;5.67;;
14377;SDS011;7272;53.668;9.578;2023-03-01T02:18:44;5.20;;;4.70;;
14377;SDS011;7272;53.668;9.578;2023-03-01T02:21:48;4.67;;;4.27;;
14377;SDS011;7272;53.668;9.578;2023-03-01T02:25:03;4.50;;;4.20;;
14377;SDS011;7272;53.668;9.578;2023-03-01T02:28:26;4.80;;;4.23;;
14377;SDS011;7272;53.668;9.578;2023-03-01T02:31:30;4.80;;;4.40;;
14377;SDS011;7272;53.668;9.578;2023-03-01T02:34:48;6.17;;;5.57;;
14377;SDS011;7272;53.668;9.578;2023-03-01T02:37:50;3.93;;;3.63;;
14377;SDS011;7272;53.668;9.578;2023-03-01T02:40:52;4.90;;;4.50;;
14377;SDS011;7272;53.668;9.578;2023-03-01T02:43:57;4.40;;;4.10;;
14377;SDS011;7272;53.668;9.578;2023-03-01T02:47:00;4.90;;;4.40;;
14377;SDS011;7272;53.668;9.578;2023-03-01T02:50:09;4.90;;;4.50;;
14377;SDS011;7272;53.668;9.578;2023-03-01T02:53:17;4.43;;;4.13;;
14377;SDS011;7272;53.668;9.578;2023-03-01T02:56:28;5.00;;;4.50;;
14377;SDS011;7272;53.668;9.578;2023-03-01T02:59:33;6.00;;;4.93;;
14377;SDS011;7272;53.668;9.578;2023-03-01T03:02:40;4.37;;;3.97;;
14377;SDS011;7272;53.668;9.578;2023-03-01T03:05:48;4.10;;;3.80;;
14377;SDS011;7272;53.668;9.578;2023-03-01T03:08:50;4.60;;;4.27;;
14377;SDS011;7272;53.668;9.578;2023-03-01T03:11:52;9.17;;;4.80;;
14377;SDS011;7272;53.668;9.578;2023-03-01T03:14:55;5.17;;;4.30;;
14377;SDS011;7272;53.668;9.578;2023-03-01T03:17:58;5.13;;;4.70;;
14377;SDS011;7272;53.668;9.578;2023-03-01T03:21:00;17.90;;;5.57;;
14377;SDS011;7272;53.668;9.578;2023-03-01T03:24:02;12.10;;;6.07;;
14377;SDS011;7272;53.668;9.578;2023-03-01T03:27:05;16.30;;;5.50;;
14377;SDS011;7272;53.668;9.578;2023-03-01T03:30:10;22.23;;;7.07;;
14377;SDS011;7272;53.668;9.578;2023-03-01T03:33:14;15.03;;;6.53;;
14377;SDS011;7272;53.668;9.578;2023-03-01T03:36:16;5.07;;;4.53;;
14377;SDS011;7272;53.668;9.578;2023-03-01T03:39:18;7.20;;;4.87;;
14377;SDS011;7272;53.668;9.578;2023-03-01T03:42:20;8.07;;;4.23;;
14377;SDS011;7272;53.668;9.578;2023-03-01T03:45:24;4.77;;;4.13;;
14377;SDS011;7272;53.668;9.578;2023-03-01T03:48:26;4.53;;;4.13;;
14377;SDS011;7272;53.668;9.578;2023-03-01T03:51:28;5.50;;;4.90;;
14377;SDS011;7272;53.668;9.578;2023-03-01T03:54:30;4.83;;;4.33;;
14377;SDS011;7272;53.668;9.578;2023-03-01T03:57:32;5.27;;;4.83;;
14377;SDS011;7272;53.668;9.578;2023-03-01T04:00:36;5.53;;;5.03;;
14377;SDS011;7272;53.668;9.578;2023-03-01T04:03:39;5.97;;;5.27;;
14377;SDS011;7272;53.668;9.578;2023-03-01T04:06:41;4.60;;;4.30;;
14377;SDS011;7272;53.668;9.578;2023-03-01T04:09:43;7.57;;;5.63;;
14377;SDS011;7272;53.668;9.578;2023-03-01T04:12:45;4.87;;;4.47;;
14377;SDS011;7272;53.668;9.578;2023-03-01T04:15:49;6.53;;;5.70;;
14377;SDS011;7272;53.668;9.578;2023-03-01T04:18:51;5.60;;;5.10;;
14377;SDS011;7272;53.668;9.578;2023-03-01T04:21:58;4.90;;;4.40;;
14377;SDS011;7272;53.668;9.578;2023-03-01T04:25:00;5.63;;;5.13;;
14377;SDS011;7272;53.668;9.578;2023-03-01T04:28:06;5.40;;;4.90;;
14377;SDS011;7272;53.668;9.578;2023-03-01T04:31:10;5.33;;;4.83;;
14377;SDS011;7272;53.668;9.578;2023-03-01T04:34:15;5.37;;;4.87;;
14377;SDS011;7272;53.668;9.578;2023-03-01T04:37:17;5.13;;;4.73;;
14377;SDS011;7272;53.668;9.578;2023-03-01T04:40:19;5.80;;;4.87;;
14377;SDS011;7272;53.668;9.578;2023-03-01T04:43:21;5.00;;;4.47;;
14377;SDS011;7272;53.668;9.578;2023-03-01T04:46:24;6.23;;;5.63;;
14377;SDS011;7272;53.668;9.578;2023-03-01T04:49:26;5.27;;;4.37;;
14377;SDS011;7272;53.668;9.578;2023-03-01T04:52:28;6.10;;;5.37;;
14377;SDS011;7272;53.668;9.578;2023-03-01T04:55:30;5.40;;;5.00;;
14377;SDS011;7272;53.668;9.578;2023-03-01T04:58:32;6.00;;;5.40;;
14377;SDS011;7272;53.668;9.578;2023-03-01T05:01:36;5.43;;;4.90;;
14377;SDS011;7272;53.668;9.578;2023-03-01T05:04:38;5.90;;;5.37;;
14377;SDS011;7272;53.668;9.578;2023-03-01T05:07:39;5.27;;;4.77;;
14377;SDS011;7272;53.668;9.578;2023-03-01T05:10:41;5.87;;;4.43;;
14377;SDS011;7272;53.668;9.578;2023-03-01T05:13:44;5.67;;;5.17;;
14377;SDS011;7272;53.668;9.578;2023-03-01T05:16:47;5.73;;;5.23;;
14377;SDS011;7272;53.668;9.578;2023-03-01T05:19:49;4.53;;;4.23;;
14377;SDS011;7272;53.668;9.578;2023-03-01T05:22:51;4.63;;;4.23;;
14377;SDS011;7272;53.668;9.578;2023-03-01T05:25:57;5.43;;;4.93;;
14377;SDS011;7272;53.668;9.578;2023-03-01T05:28:59;4.93;;;4.53;;
14377;SDS011;7272;53.668;9.578;2023-03-01T05:32:03;5.33;;;4.93;;
14377;SDS011;7272;53.668;9.578;2023-03-01T05:35:05;4.93;;;4.53;;
14377;SDS011;7272;53.668;9.578;2023-03-01T05:38:08;4.30;;;3.90;;
14377;SDS011;7272;53.668;9.578;2023-03-01T05:41:13;5.80;;;5.30;;
14377;SDS011;7272;53.668;9.578;2023-03-01T05:44:15;5.17;;;4.77;;
14377;SDS011;7272;53.668;9.578;2023-03-01T05:47:19;8.37;;;7.50;;
14377;SDS011;7272;53.668;9.578;2023-03-01T05:50:21;7.40;;;6.80;;
14377;SDS011;7272;53.668;9.578;2023-03-01T05:53:25;6.50;;;5.90;;
14377;SDS011;7272;53.668;9.578;2023-03-01T05:56:27;8.53;;;7.73;;
14377;SDS011;7272;53.668;9.578;2023-03-01T05:59:29;6.33;;;5.80;;
14377;SDS011;7272;53.668;9.578;2023-03-01T06:02:32;5.90;;;5.40;;
14377;SDS011;7272;53.668;9.578;2023-03-01T06:05:34;4.93;;;4.53;;
14377;SDS011;7272;53.668;9.578;2023-03-01T06:08:36;5.17;;;4.77;;
14377;SDS011;7272;53.668;9.578;2023-03-01T06:11:38;4.87;;;4.43;;
14377;SDS011;7272;53.668;9.578;2023-03-01T06:14:40;4.50;;;4.10;;
14377;SDS011;7272;53.668;9.578;2023-03-01T06:17:44;4.87;;;4.30;;
14377;SDS011;7272;53.668;9.578;2023-03-01T06:20:51;4.80;;;4.40;;
14377;SDS011;7272;53.668;9.578;2023-03-01T06:23:54;6.80;;;6.20;;
14377;SDS011;7272;53.668;9.578;2023-03-01T06:26:56;8.20;;;7.40;;
14377;SDS011;7272;53.668;9.578;2023-03-01T06:29:58;7.43;;;5.60;;
14377;SDS011;7272;53.668;9.578;2023-03-01T06:33:01;8.73;;;7.83;;
14377;SDS011;7272;53.668;9.578;2023-03-01T06:36:04;9.53;;;8.13;;
14377;SDS011;7272;53.668;9.578;2023-03-01T06:39:07;9.33;;;8.53;;
14377;SDS011;7272;53.668;9.578;2023-03-01T06:42:09;8.23;;;7.53;;
14377;SDS011;7272;53.668;9.578;2023-03-01T06:45:11;12.83;;;11.50;;
14377;SDS011;7272;53.668;9.578;2023-03-01T06:48:14;11.47;;;10.33;;
14377;SDS011;7272;53.668;9.578;2023-03-01T06:51:16;14.50;;;12.70;;
14377;SDS011;7272;53.668;9.578;2023-03-01T06:54:18;15.57;;;13.97;;
14377;SDS011;7272;53.668;9.578;2023-03-01T06:57:22;32.73;;;16.80;;
14377;SDS011;7272;53.668;9.578;2023-03-01T07:00:24;37.83;;;17.73;;
14377;SDS011;7272;53.668;9.578;2023-03-01T07:03:27;65.77;;;17.90;;
14377;SDS011;7272;53.668;9.578;2023-03-01T07:06:29;53.37;;;16.10;;
14377;SDS011;7272;53.668;9.578;2023-03-01T07:09:31;42.13;;;15.50;;
14377;SDS011;7272;53.668;9.578;2023-03-01T07:12:33;57.53;;;16.20;;
14377;SDS011;7272;53.668;9.578;2023-03-01T07:15:35;32.00;;;13.43;;
14377;SDS011;7272;53.668;9.578;2023-03-01T07:18:39;32.10;;;12.80;;
14377;SDS011;7272;53.668;9.578;2023-03-01T07:21:40;23.43;;;11.10;;
14377;SDS011;7272;53.668;9.578;2023-03-01T07:24:42;16.67;;;10.40;;
14377;SDS011;7272;53.668;9.578;2023-03-01T07:27:48;165.43;;;25.40;;
14377;SDS011;7272;53.668;9.578;2023-03-01T07:30:51;26.57;;;14.07;;
14377;SDS011;7272;53.668;9.578;2023-03-01T07:33:55;73.80;;;18.87;;
14377;SDS011;7272;53.668;9.578;2023-03-01T07:36:57;104.17;;;19.70;;
14377;SDS011;7272;53.668;9.578;2023-03-01T07:39:59;63.13;;;16.40;;
14377;SDS011;7272;53.668;9.578;2023-03-01T07:43:01;61.20;;;17.77;;
14377;SDS011;7272;53.668;9.578;2023-03-01T07:46:03;49.67;;;17.90;;
14377;SDS011;7272;53.668;9.578;2023-03-01T07:49:07;25.10;;;14.23;;
14377;SDS011;7272;53.668;9.578;2023-03-01T07:52:09;30.57;;;12.63;;
14377;SDS011;7272;53.668;9.578;2023-03-01T07:55:12;19.57;;;9.60;;
14377;SDS011;7272;53.668;9.578;2023-03-01T07:58:14;59.70;;;14.50;;
14377;SDS011;7272;53.668;9.578;2023-03-01T08:01:17;50.20;;;12.97;;
14377;SDS011;7272;53.668;9.578;2023-03-01T08:04:22;100.10;;;16.37;;
14377;SDS011;7272;53.668;9.578;2023-03-01T08:07:25;75.83;;;16.07;;
14377;SDS011;7272;53.668;9.578;2023-03-01T08:10:26;81.70;;;14.40;;
14377;SDS011;7272;53.668;9.578;2023-03-01T08:13:29;77.90;;;16.80;;
14377;SDS011;7272;53.668;9.578;2023-03-01T08:16:31;103.07;;;16.10;;
14377;SDS011;7272;53.668;9.578;2023-03-01T08:19:36;117.73;;;18.33;;
14377;SDS011;7272;53.668;9.578;2023-03-01T08:22:38;95.43;;;17.07;;
14377;SDS011;7272;53.668;9.578;2023-03-01T08:25:40;51.60;;;13.00;;
14377;SDS011;7272;53.668;9.578;2023-03-01T08:28:42;124.73;;;17.87;;
14377;SDS011;7272;53.668;9.578;2023-03-01T08:31:44;62.47;;;12.63;;
14377;SDS011;7272;53.668;9.578;2023-03-01T08:34:47;61.47;;;14.67;;
14377;SDS011;7272;53.668;9.578;2023-03-01T08:37:49;130.93;;;16.73;;
14377;SDS011;7272;53.668;9.578;2023-03-01T08:40:51;153.97;;;17.93;;
14377;SDS011;7272;53.668;9.578;2023-03-01T08:43:53;52.97;;;11.57;;
14377;SDS011;7272;53.668;9.578;2023-03-01T08:46:58;184.73;;;19.60;;
14377;SDS011;7272;53.668;9.578;2023-03-01T08:50:04;91.37;;;14.53;;
14377;SDS011;7272;53.668;9.578;2023-03-01T08:53:06;110.70;;;14.73;;
14377;SDS011;7272;53.668;9.578;2023-03-01T08:56:09;93.10;;;13.60;;
14377;SDS011;7272;53.668;9.578;2023-03-01T08:59:11;98.10;;;14.27;;
14377;SDS011;7272;53.668;9.578;2023-03-01T09:02:16;73.67;;;13.10;;
14377;SDS011;7272;53.668;9.578;2023-03-01T09:05:20;95.83;;;14.83;;
14377;SDS011;7272;53.668;9.578;2023-03-01T09:08:22;31.20;;;9.73;;
14377;SDS011;7272;53.668;9.578;2023-03-01T09:11:24;16.23;;;7.90;;
14377;SDS011;7272;53.668;9.578;2023-03-01T09:14:26;32.87;;;10.67;;
14377;SDS011;7272;53.668;9.578;2023-03-01T09:17:28;42.20;;;10.00;;
14377;SDS011;7272;53.668;9.578;2023-03-01T09:20:31;41.30;;;10.77;;
14377;SDS011;7272;53.668;9.578;2023-03-01T09:23:34;40.90;;;9.83;;
14377;SDS011;7272;53.668;9.578;2023-03-01T09:26:38;70.60;;;12.73;;
14377;SDS011;7272;53.668;9.578;2023-03-01T09:29:40;62.53;;;12.77;;
14377;SDS011;7272;53.668;9.578;2023-03-01T09:32:42;31.03;;;10.43;;
14377;SDS011;7272;53.668;9.578;2023-03-01T09:35:46;46.67;;;11.27;;
14377;SDS011;7272;53.668;9.578;2023-03-01T09:38:48;68.70;;;13.77;;
14377;SDS011;7272;53.668;9.578;2023-03-01T09:41:54;73.10;;;15.17;;
14377;SDS011;7272;53.668;9.578;2023-03-01T09:45:03;74.50;;;14.73;;
14377;SDS011;7272;53.668;9.578;2023-03-01T09:48:08;62.10;;;16.73;;
14377;SDS011;7272;53.668;9.578;2023-03-01T09:51:19;64.93;;;14.60;;
14377;SDS011;7272;53.668;9.578;2023-03-01T09:54:27;36.07;;;11.83;;
14377;SDS011;7272;53.668;9.578;2023-03-01T09:57:31;20.70;;;10.30;;
14377;SDS011;7272;53.668;9.578;2023-03-01T10:00:39;46.47;;;13.27;;
14377;SDS011;7272;53.668;9.578;2023-03-01T10:03:44;27.00;;;10.97;;
14377;SDS011;7272;53.668;9.578;2023-03-01T10:07:05;22.67;;;11.17;;
14377;SDS011;7272;53.668;9.578;2023-03-01T10:10:22;19.47;;;9.90;;
14377;SDS011;7272;53.668;9.578;2023-03-01T10:13:29;22.73;;;10.17;;
14377;SDS011;7272;53.668;9.578;2023-03-01T10:16:40;24.63;;;12.27;;
14377;SDS011;7272;53.668;9.578;2023-03-01T10:19:48;17.70;;;9.87;;
14377;SDS011;7272;53.668;9.578;2023-03-01T10:22:51;19.03;;;10.93;;
14377;SDS011;7272;53.668;9.578;2023-03-01T10:25:58;19.77;;;11.00;;
14377;SDS011;7272;53.668;9.578;2023-03-01T10:29:07;36.53;;;13.63;;
14377;SDS011;7272;53.668;9.578;2023-03-01T10:32:10;29.03;;;12.07;;
14377;SDS011;7272;53.668;9.578;2023-03-01T10:35:16;26.10;;;13.43;;
14377;SDS011;7272;53.668;9.578;2023-03-01T10:38:21;31.03;;;13.97;;
14377;SDS011;7272;53.668;9.578;2023-03-01T10:41:24;25.23;;;12.97;;
14377;SDS011;7272;53.668;9.578;2023-03-01T10:44:38;26.03;;;13.37;;
14377;SDS011;7272;53.668;9.578;2023-03-01T10:47:41;27.03;;;13.50;;
14377;SDS011;7272;53.668;9.578;2023-03-01T10:50:44;42.50;;;16.93;;
14377;SDS011;7272;53.668;9.578;2023-03-01T10:53:48;33.47;;;15.67;;
14377;SDS011;7272;53.668;9.578;2023-03-01T10:56:52;40.80;;;16.57;;
14377;SDS011;7272;53.668;9.578;2023-03-01T11:00:01;38.67;;;15.57;;
14377;SDS011;7272;53.668;9.578;2023-03-01T11:03:34;25.30;;;14.00;;
14377;SDS011;7272;53.668;9.578;2023-03-01T11:06:37;31.13;;;15.37;;
14377;SDS011;7272;53.668;9.578;2023-03-01T11:09:41;30.50;;;17.10;;
14377;SDS011;7272;53.668;9.578;2023-03-01T11:12:43;30.57;;;15.90;;
14377;SDS011;7272;53.668;9.578;2023-03-01T11:15:57;27.00;;;16.40;;
14377;SDS011;7272;53.668;9.578;2023-03-01T11:19:13;32.23;;;19.03;;
14377;SDS011;7272;53.668;9.578;2023-03-01T11:22:17;35.23;;;17.97;;
14377;SDS011;7272;53.668;9.578;2023-03-01T11:25:25;23.30;;;15.43;;
14377;SDS011;7272;53.668;9.578;2023-03-01T11:28:30;25.03;;;15.27;;
14377;SDS011;7272;53.668;9.578;2023-03-01T11:31:34;25.77;;;15.27;;
14377;SDS011;7272;53.668;9.578;2023-03-01T11:34:38;27.47;;;16.13;;
14377;SDS011;7272;53.668;9.578;2023-03-01T11:37:48;29.97;;;18.47;;
14377;SDS011;7272;53.668;9.578;2023-03-01T11:41:02;24.63;;;16.13;;
14377;SDS011;7272;53.668;9.578;2023-03-01T11:44:10;26.30;;;15.93;;
14377;SDS011;7272;53.668;9.578;2023-03-01T11:47:25;25.50;;;17.17;;
14377;SDS011;7272;53.668;9.578;2023-03-01T11:50:35;26.97;;;17.93;;
14377;SDS011;7272;53.668;9.578;2023-03-01T11:53:51;29.00;;;18.37;;
14377;SDS011;7272;53.668;9.578;2023-03-01T11:57:17;30.60;;;21.00;;
14377;SDS011;7272;53.668;9.578;2023-03-01T12:00:37;28.47;;;18.93;;
14377;SDS011;7272;53.668;9.578;2023-03-01T12:07:46;28.90;;;19.30;;
14377;SDS011;7272;53.668;9.578;2023-03-01T12:10:57;31.83;;;21.87;;
14377;SDS011;7272;53.668;9.578;2023-03-01T12:18:10;31.17;;;20.87;;
14377;SDS011;7272;53.668;9.578;2023-03-01T12:21:48;30.20;;;19.70;;
14377;SDS011;7272;53.668;9.578;2023-03-01T12:25:10;22.80;;;17.37;;
14377;SDS011;7272;53.668;9.578;2023-03-01T12:28:50;25.80;;;18.40;;
14377;SDS011;7272;53.668;9.578;2023-03-01T12:32:08;24.23;;;16.87;;
14377;SDS011;7272;53.668;9.578;2023-03-01T12:39:34;26.10;;;19.27;;
14377;SDS011;7272;53.668;9.578;2023-03-01T12:42:52;29.27;;;20.13;;
14377;SDS011;7272;53.668;9.578;2023-03-01T12:46:21;25.53;;;17.17;;
14377;SDS011;7272;53.668;9.578;2023-03-01T12:49:42;21.13;;;14.50;;
14377;SDS011;7272;53.668;9.578;2023-03-01T12:52:58;19.23;;;13.03;;
14377;SDS011;7272;53.668;9.578;2023-03-01T12:56:01;23.87;;;16.70;;
14377;SDS011;7272;53.668;9.578;2023-03-01T13:03:12;23.50;;;16.20;;
14377;SDS011;7272;53.668;9.578;2023-03-01T13:10:06;19.40;;;13.97;;
14377;SDS011;7272;53.668;9.578;2023-03-01T13:13:20;20.73;;;14.73;;
14377;SDS011;7272;53.668;9.578;2023-03-01T13:16:38;18.97;;;14.17;;
14377;SDS011;7272;53.668;9.578;2023-03-01T13:19:49;17.13;;;13.47;;
14377;SDS011;7272;53.668;9.578;2023-03-01T13:23:02;18.33;;;13.13;;
14377;SDS011;7272;53.668;9.578;2023-03-01T13:26:11;18.80;;;13.57;;
14377;SDS011;7272;53.668;9.578;2023-03-01T13:29:25;14.67;;;11.20;;
14377;SDS011;7272;53.668;9.578;2023-03-01T13:32:28;15.30;;;13.33;;
14377;SDS011;7272;53.668;9.578;2023-03-01T13:35:41;14.53;;;11.93;;
14377;SDS011;7272;53.668;9.578;2023-03-01T13:38:45;17.00;;;13.20;;
14377;SDS011;7272;53.668;9.578;2023-03-01T13:41:51;14.93;;;12.50;;
14377;SDS011;7272;53.668;9.578;2023-03-01T13:44:54;16.40;;;12.87;;
14377;SDS011;7272;53.668;9.578;2023-03-01T13:47:57;13.97;;;11.27;;
14377;SDS011;7272;53.668;9.578;2023-03-01T13:51:02;15.13;;;11.30;;
14377;SDS011;7272;53.668;9.578;2023-03-01T13:54:09;14.20;;;11.73;;
14377;SDS011;7272;53.668;9.578;2023-03-01T13:57:17;16.63;;;13.00;;
14377;SDS011;7272;53.668;9.578;2023-03-01T14:00:28;14.47;;;12.80;;
14377;SDS011;7272;53.668;9.578;2023-03-01T14:03:40;17.10;;;13.97;;
14377;SDS011;7272;53.668;9.578;2023-03-01T14:06:43;17.57;;;14.20;;
14377;SDS011;7272;53.668;9.578;2023-03-01T14:09:46;15.20;;;13.00;;
14377;SDS011;7272;53.668;9.578;2023-03-01T14:12:53;15.63;;;12.83;;
14377;SDS011;7272;53.668;9.578;2023-03-01T14:19:24;13.73;;;12.17;;
14377;SDS011;7272;53.668;9.578;2023-03-01T14:22:28;16.13;;;12.63;;
14377;SDS011;7272;53.668;9.578;2023-03-01T14:25:33;13.07;;;10.53;;
14377;SDS011;7272;53.668;9.578;2023-03-01T14:28:38;12.73;;;10.73;;
14377;SDS011;7272;53.668;9.578;2023-03-01T14:31:43;16.33;;;13.07;;
14377;SDS011;7272;53.668;9.578;2023-03-01T14:34:47;15.47;;;12.57;;
14377;SDS011;7272;53.668;9.578;2023-03-01T14:37:50;13.07;;;11.63;;
14377;SDS011;7272;53.668;9.578;2023-03-01T14:40:53;13.97;;;11.63;;
14377;SDS011;7272;53.668;9.578;2023-03-01T14:43:59;16.00;;;12.30;;
14377;SDS011;7272;53.668;9.578;2023-03-01T14:47:04;17.13;;;14.17;;
14377;SDS011;7272;53.668;9.578;2023-03-01T14:50:07;19.40;;;13.97;;
14377;SDS011;7272;53.668;9.578;2023-03-01T14:53:14;15.07;;;11.83;;
14377;SDS011;7272;53.668;9.578;2023-03-01T14:56:19;18.60;;;13.20;;
14377;SDS011;7272;53.668;9.578;2023-03-01T14:59:23;16.23;;;13.07;;
14377;SDS011;7272;53.668;9.578;2023-03-01T15:02:25;17.33;;;12.90;;
14377;SDS011;7272;53.668;9.578;2023-03-01T15:05:31;15.57;;;12.87;;
14377;SDS011;7272;53.668;9.578;2023-03-01T15:08:34;16.87;;;13.63;;
14377;SDS011;7272;53.668;9.578;2023-03-01T15:11:38;18.43;;;14.37;;
14377;SDS011;7272;53.668;9.578;2023-03-01T15:14:45;16.73;;;13.80;;
14377;SDS011;7272;53.668;9.578;2023-03-01T15:17:50;19.23;;;14.13;;
14377;SDS011;7272;53.668;9.578;2023-03-01T15:20:56;20.53;;;14.20;;
14377;SDS011;7272;53.668;9.578;2023-03-01T15:24:13;17.80;;;13.43;;
14377;SDS011;7272;53.668;9.578;2023-03-01T15:27:21;21.07;;;16.27;;
14377;SDS011;7272;53.668;9.578;2023-03-01T15:30:27;21.37;;;15.27;;
14377;SDS011;7272;53.668;9.578;2023-03-01T15:33:35;19.37;;;15.13;;
14377;SDS011;7272;53.668;9.578;2023-03-01T15:36:40;25.70;;;18.77;;
14377;SDS011;7272;53.668;9.578;2023-03-01T15:39:50;26.50;;;18.63;;
14377;SDS011;7272;53.668;9.578;2023-03-01T15:42:55;27.73;;;19.50;;
14377;SDS011;7272;53.668;9.578;2023-03-01T15:45:58;25.90;;;17.50;;
14377;SDS011;7272;53.668;9.578;2023-03-01T15:49:02;28.20;;;19.47;;
14377;SDS011;7272;53.668;9.578;2023-03-01T15:52:06;25.90;;;19.23;;
14377;SDS011;7272;53.668;9.578;2023-03-01T15:55:15;24.57;;;17.47;;
14377;SDS011;7272;53.668;9.578;2023-03-01T15:58:20;24.17;;;17.50;;
14377;SDS011;7272;53.668;9.578;2023-03-01T16:01:25;25.87;;;18.53;;
14377;SDS011;7272;53.668;9.578;2023-03-01T16:04:27;25.60;;;19.13;;
14377;SDS011;7272;53.668;9.578;2023-03-01T16:07:29;32.77;;;22.73;;
14377;SDS011;7272;53.668;9.578;2023-03-01T16:10:31;27.10;;;19.27;;
14377;SDS011;7272;53.668;9.578;2023-03-01T16:13:33;28.70;;;19.90;;
14377;SDS011;7272;53.668;9.578;2023-03-01T16:16:37;23.93;;;17.57;;
14377;SDS011;7272;53.668;9.578;2023-03-01T16:19:39;26.60;;;18.73;;
14377;SDS011;7272;53.668;9.578;2023-03-01T16:22:41;22.37;;;16.93;;
14377;SDS011;7272;53.668;9.578;2023-03-01T16:25:44;17.17;;;13.23;;
14377;SDS011;7272;53.668;9.578;2023-03-01T16:28:46;16.20;;;14.50;;
14377;SDS011;7272;53.668;9.578;2023-03-01T16:31:49;13.87;;;12.37;;
14377;SDS011;7272;53.668;9.578;2023-03-01T16:34:51;11.67;;;10.47;;
14377;SDS011;7272;53.668;9.578;2023-03-01T16:37:53;11.33;;;10.13;;
14377;SDS011;7272;53.668;9.578;2023-03-01T16:40:55;10.03;;;9.07;;
14377;SDS011;7272;53.668;9.578;2023-03-01T16:43:56;11.30;;;10.13;;
14377;SDS011;7272;53.668;9.578;2023-03-01T16:47:00;9.90;;;8.87;;
14377;SDS011;7272;53.668;9.578;2023-03-01T16:50:02;11.40;;;10.20;;
14377;SDS011;7272;53.668;9.578;2023-03-01T16:53:04;10.37;;;9.27;;
14377;SDS011;7272;53.668;9.578;2023-03-01T16:56:07;9.07;;;8.17;;
14377;SDS011;7272;53.668;9.578;2023-03-01T16:59:11;9.67;;;8.77;;
14377;SDS011;7272;53.668;9.578;2023-03-01T17:02:15;11.50;;;9.93;;
14377;SDS011;7272;53.668;9.578;2023-03-01T17:05:19;9.93;;;8.93;;
14377;SDS011;7272;53.668;9.578;2023-03-01T17:08:23;11.77;;;10.50;;
14377;SDS011;7272;53.668;9.578;2023-03-01T17:11:25;8.73;;;7.93;;
14377;SDS011;7272;53.668;9.578;2023-03-01T17:14:28;9.67;;;8.83;;
14377;SDS011;7272;53.668;9.578;2023-03-01T17:17:31;10.73;;;9.63;;
14377;SDS011;7272;53.668;9.578;2023-03-01T17:20:35;8.70;;;7.90;;
14377;SDS011;7272;53.668;9.578;2023-03-01T17:23:37;8.77;;;7.97;;
14377;SDS011;7272;53.668;9.578;2023-03-01T17:26:41;8.30;;;7.57;;
14377;SDS011;7272;53.668;9.578;2023-03-01T17:29:43;9.23;;;8.33;;
14377;SDS011;7272;53.668;9.578;2023-03-01T17:32:46;8.13;;;7.33;;
14377;SDS011;7272;53.668;9.578;2023-03-01T17:35:49;8.70;;;7.87;;
14377;SDS011;7272;53.668;9.578;2023-03-01T17:38:51;8.00;;;7.27;;
14377;SDS011;7272;53.668;9.578;2023-03-01T17:41:53;7.90;;;7.20;;
14377;SDS011;7272;53.668;9.578;2023-03-01T17:44:55;8.77;;;7.90;;
14377;SDS011;7272;53.668;9.578;2023-03-01T17:47:59;8.43;;;7.63;;
14377;SDS011;7272;53.668;9.578;2023-03-01T17:51:04;8.60;;;7.80;;
14377;SDS011;7272;53.668;9.578;2023-03-01T17:54:07;8.63;;;7.93;;
14377;SDS011;7272;53.668;9.578;2023-03-01T17:57:09;8.07;;;7.40;;
14377;SDS011;7272;53.668;9.578;2023-03-01T18:00:13;9.17;;;8.37;;
14377;SDS011;7272;53.668;9.578;2023-03-01T18:03:18;8.47;;;7.70;;
14377;SDS011;7272;53.668;9.578;2023-03-01T18:06:21;9.73;;;8.83;;
14377;SDS011;7272;53.668;9.578;2023-03-01T18:09:25;8.53;;;7.83;;
14377;SDS011;7272;53.668;9.578;2023-03-01T18:12:27;9.27;;;8.47;;
14377;SDS011;7272;53.668;9.578;2023-03-01T18:15:29;9.43;;;8.63;;
14377;SDS011;7272;53.668;9.578;2023-03-01T18:21:36;9.63;;;8.83;;
14377;SDS011;7272;53.668;9.578;2023-03-01T18:24:38;8.57;;;7.80;;
14377;SDS011;7272;53.668;9.578;2023-03-01T18:27:40;9.70;;;8.80;;
14377;SDS011;7272;53.668;9.578;2023-03-01T18:30:42;8.97;;;8.23;;
14377;SDS011;7272;53.668;9.578;2023-03-01T18:33:45;10.73;;;9.73;;
14377;SDS011;7272;53.668;9.578;2023-03-01T18:36:48;10.10;;;9.20;;
14377;SDS011;7272;53.668;9.578;2023-03-01T18:39:51;9.97;;;9.07;;
14377;SDS011;7272;53.668;9.578;2023-03-01T18:42:53;10.03;;;9.13;;
14377;SDS011;7272;53.668;9.578;2023-03-01T18:45:55;10.83;;;9.83;;
14377;SDS011;7272;53.668;9.578;2023-03-01T18:48:59;11.90;;;10.80;;
14377;SDS011;7272;53.668;9.578;2023-03-01T18:52:04;11.47;;;10.23;;
14377;SDS011;7272;53.668;9.578;2023-03-01T18:55:06;10.90;;;9.90;;
14377;SDS011;7272;53.668;9.578;2023-03-01T18:58:08;11.70;;;10.53;;